Dimitrovgrad, Russia
Current Conditions -  °F | °C
As of 3:00 AM on Tuesday 25 Nov 2014 (Local Time) from UWLW Reporting Station
Clear Clear  
Wind Chill: -4°   Ceiling: Unl
Heat Index:   Visibility: 3mi
Dew Point:   Wind: 4mph
Humidity: 85%   Direction: 230°SW
Pressure: 30.8"   Gusts: NA
Location:  54.25°N, 49.55°E
Report Text: UWLW 250000Z 23002MPS P5000 SKC M15/M17 Q1043 20CLRD60 NOSIGRMK QFE776
Loading
Personal Weather Stations






























Interactive Weather Map New forecast layout! Learn more

10-Day Weather Forecast

Advertisements
Track Severe Weather on mobile